Time;durP1;ratioP1;P1;durP2;ratioP2;P2;SDS_P1;SDS_P2;PMS_P1;PMS_P2;Temp;Humidity;BMP_temperature;BMP_pressure;BME280_temperature;BME280_humidity;BME280_pressure;Samples;Min_cycle;Max_cycle;Signal;HPM_P1;HPM_P2
2023/01/21 00:01:18;;;;;;;6.93;5.32;;;-3.40;99.90;;;;;;5075749;28;20032;-32
2023/01/21 00:03:44;;;;;;;9.52;5.20;;;-3.40;99.90;;;;;;5075614;28;20024;-31
2023/01/21 00:06:13;;;;;;;9.02;4.97;;;-3.40;99.90;;;;;;5095704;28;20114;-31
2023/01/21 00:08:39;;;;;;;9.05;6.93;;;-3.40;99.90;;;;;;5094261;28;20417;-33
2023/01/21 00:11:15;;;;;;;4.63;4.15;;;-3.40;99.90;;;;;;5090716;28;20024;-30
2023/01/21 00:13:42;;;;;;;10.57;7.43;;;-3.40;99.90;;;;;;5093325;28;20028;-32
2023/01/21 00:16:08;;;;;;;12.32;7.25;;;-3.40;99.90;;;;;;5090825;28;20531;-34
2023/01/21 00:18:34;;;;;;;6.47;5.65;;;-3.40;99.90;;;;;;5063659;28;20024;-32
2023/01/21 00:21:00;;;;;;;9.75;7.47;;;-3.40;99.90;;;;;;5093566;28;20076;-33
2023/01/21 00:23:26;;;;;;;9.07;6.68;;;-3.50;99.90;;;;;;5095362;28;20480;-33
2023/01/21 00:25:59;;;;;;;7.60;5.25;;;-3.50;99.90;;;;;;5091539;28;20035;-32
2023/01/21 00:28:30;;;;;;;6.32;5.78;;;-3.50;99.90;;;;;;5094369;28;20032;-32
2023/01/21 00:30:58;;;;;;;8.50;4.07;;;-3.50;99.90;;;;;;5087119;28;20085;-34
2023/01/21 00:33:23;;;;;;;8.73;7.03;;;-3.50;99.90;;;;;;5071863;28;20028;-34
2023/01/21 00:36:07;;;;;;;6.88;6.25;;;-3.60;99.90;;;;;;5091015;28;20028;-31
2023/01/21 00:38:33;;;;;;;7.60;5.82;;;-3.70;99.90;;;;;;5087107;28;20028;-34
2023/01/21 00:41:06;;;;;;;4.55;4.25;;;-3.70;99.90;;;;;;5068547;28;20130;-32
2023/01/21 00:43:32;;;;;;;3.33;2.67;;;-3.70;99.90;;;;;;5096228;28;20063;-32
2023/01/21 00:45:58;;;;;;;6.47;4.47;;;-3.80;99.90;;;;;;5089606;28;20043;-32
2023/01/21 00:48:24;;;;;;;2.90;2.70;;;-3.80;99.90;;;;;;5086712;28;20025;-36
2023/01/21 00:50:50;;;;;;;6.00;4.38;;;-3.80;99.90;;;;;;5086146;28;20512;-33
2023/01/21 00:53:17;;;;;;;6.22;4.75;;;-3.80;99.90;;;;;;5085905;28;20558;-32
2023/01/21 00:55:42;;;;;;;5.47;4.55;;;-3.70;99.90;;;;;;5090531;28;20024;-33
2023/01/21 00:58:08;;;;;;;3.97;3.50;;;-3.70;99.90;;;;;;5091923;28;20073;-33
2023/01/21 01:00:34;;;;;;;12.95;8.15;;;-3.70;99.90;;;;;;5080293;28;20016;-32
2023/01/21 01:03:00;;;;;;;3.67;3.42;;;-3.80;99.90;;;;;;5073251;28;20735;-33
2023/01/21 01:05:25;;;;;;;8.90;5.90;;;-3.80;99.90;;;;;;5071272;28;20037;-33
2023/01/21 01:07:51;;;;;;;5.10;3.55;;;-3.80;99.90;;;;;;5088618;28;20046;-32
2023/01/21 01:10:17;;;;;;;5.88;5.30;;;-3.80;99.90;;;;;;5090505;28;20396;-31
2023/01/21 01:12:43;;;;;;;5.25;4.78;;;-3.80;99.90;;;;;;5070976;28;20031;-33
2023/01/21 01:15:09;;;;;;;11.10;6.30;;;-3.80;99.90;;;;;;5078866;28;20488;-32
2023/01/21 01:17:35;;;;;;;6.97;6.25;;;-3.70;99.90;;;;;;5083853;28;20103;-32
2023/01/21 01:20:01;;;;;;;9.35;6.32;;;-3.70;99.90;;;;;;5089211;28;20012;-33
2023/01/21 01:22:27;;;;;;;12.18;6.90;;;-3.70;99.90;;;;;;5086863;28;20513;-32
2023/01/21 01:24:53;;;;;;;10.00;5.28;;;-3.70;99.90;;;;;;5077112;28;20031;-31
2023/01/21 01:27:18;;;;;;;9.10;6.65;;;-3.70;99.90;;;;;;5088420;28;20524;-31
2023/01/21 01:29:44;;;;;;;12.25;6.22;;;-3.70;99.90;;;;;;5087447;28;20023;-32
2023/01/21 01:32:10;;;;;;;3.60;3.28;;;-3.70;99.90;;;;;;5077611;28;20063;-31
2023/01/21 01:34:36;;;;;;;9.57;6.40;;;-3.70;99.90;;;;;;5092423;28;20556;-32
2023/01/21 01:37:02;;;;;;;6.30;5.38;;;-3.70;99.90;;;;;;5090747;28;20114;-33
2023/01/21 01:39:28;;;;;;;12.63;7.20;;;-3.70;99.90;;;;;;5090548;28;20066;-33
2023/01/21 01:41:53;;;;;;;11.95;7.43;;;-3.60;99.90;;;;;;5090464;28;20029;-32
2023/01/21 01:44:54;;;;;;;9.10;5.57;;;-3.60;99.90;;;;;;5090564;28;20040;-34
2023/01/21 01:47:24;;;;;;;14.30;3.40;;;-3.50;99.90;;;;;;5090964;28;20404;-32
2023/01/21 01:49:50;;;;;;;6.65;5.68;;;-3.50;99.90;;;;;;5086488;28;20036;-33
2023/01/21 01:52:17;;;;;;;5.70;4.78;;;-3.50;99.90;;;;;;5092122;28;20028;-36
2023/01/21 01:54:48;;;;;;;3.25;3.10;;;-3.50;99.90;;;;;;5079856;28;20146;-32
2023/01/21 01:57:19;;;;;;;6.03;4.53;;;-3.60;99.90;;;;;;5094031;28;20746;-31
2023/01/21 01:59:45;;;;;;;6.00;4.32;;;-3.60;99.90;;;;;;5081972;28;20477;-32
2023/01/21 02:02:16;;;;;;;12.20;6.47;;;-3.50;99.90;;;;;;5084638;28;20078;-31
2023/01/21 02:04:53;;;;;;;7.32;4.65;;;-3.50;99.90;;;;;;5089296;28;20051;-33
2023/01/21 02:07:21;;;;;;;7.70;5.30;;;-3.40;99.90;;;;;;5089417;28;20521;-33
2023/01/21 02:09:47;;;;;;;3.40;3.17;;;-3.40;99.90;;;;;;5088231;28;20040;-31
2023/01/21 02:12:14;;;;;;;11.52;6.70;;;-3.50;99.90;;;;;;5085423;28;20113;-32
2023/01/21 02:14:42;;;;;;;8.98;5.85;;;-3.50;99.90;;;;;;5082574;28;20020;-32
2023/01/21 02:17:18;;;;;;;7.47;5.68;;;-3.50;99.90;;;;;;5090378;28;20032;-33
2023/01/21 02:20:08;;;;;;;6.75;4.75;;;-3.40;99.90;;;;;;5084196;28;20116;-32
2023/01/21 02:22:58;;;;;;;4.05;3.22;;;-3.50;99.90;;;;;;5089723;28;20047;-32
2023/01/21 02:25:47;;;;;;;5.55;4.10;;;-3.50;99.90;;;;;;5091120;28;20027;-34
2023/01/21 02:28:54;;;;;;;5.63;5.05;;;-3.50;99.90;;;;;;5085434;28;20020;-34
2023/01/21 02:31:41;;;;;;;8.43;7.55;;;-3.50;99.90;;;;;;5089570;28;20086;-32
2023/01/21 02:34:34;;;;;;;4.05;3.75;;;-3.40;99.90;;;;;;5088935;28;20036;-33
2023/01/21 02:37:20;;;;;;;4.68;3.88;;;-3.40;99.90;;;;;;5084225;28;20028;-32
2023/01/21 02:39:57;;;;;;;4.82;3.60;;;-3.40;99.90;;;;;;5069025;28;20409;-32
2023/01/21 02:42:59;;;;;;;8.27;6.00;;;-3.50;99.90;;;;;;5068378;28;20115;-34
2023/01/21 02:45:30;;;;;;;6.88;5.25;;;-3.50;99.90;;;;;;5092447;28;20028;-33
2023/01/21 02:48:06;;;;;;;10.75;5.70;;;-3.50;99.90;;;;;;5088334;28;20028;-32
2023/01/21 02:50:42;;;;;;;9.13;6.93;;;-3.50;99.90;;;;;;5092426;28;20480;-34
2023/01/21 02:53:23;;;;;;;10.10;6.63;;;-3.50;99.90;;;;;;5096010;28;20453;-31
2023/01/21 02:55:49;;;;;;;7.28;5.15;;;-3.40;99.90;;;;;;5096013;28;20032;-32
2023/01/21 02:58:18;;;;;;;5.90;4.95;;;-3.40;99.90;;;;;;5075590;28;20032;-32
2023/01/21 03:00:50;;;;;;;16.33;8.13;;;-3.40;99.90;;;;;;5076921;28;20456;-34
2023/01/21 03:03:22;;;;;;;3.45;3.20;;;-3.40;99.90;;;;;;5075479;28;20081;-32
2023/01/21 03:06:03;;;;;;;3.55;3.33;;;-3.40;99.90;;;;;;5077776;28;20232;-33
2023/01/21 03:08:45;;;;;;;5.30;4.95;;;-3.50;99.90;;;;;;5095024;28;20051;-31
2023/01/21 03:11:17;;;;;;;12.55;5.88;;;-3.50;99.90;;;;;;5091557;28;20028;-32
2023/01/21 03:16:56;;;;;;;8.30;6.65;;;-3.50;99.90;;;;;;5079764;28;20034;-32
2023/01/21 03:19:39;;;;;;;8.70;6.80;;;-3.50;99.90;;;;;;5097151;28;20278;-34
2023/01/21 03:22:13;;;;;;;7.32;5.35;;;-3.60;99.90;;;;;;5094788;28;20385;-32
2023/01/21 03:24:43;;;;;;;12.35;5.68;;;-3.80;99.90;;;;;;5093509;28;20035;-32
2023/01/21 03:27:13;;;;;;;11.45;6.22;;;-3.90;99.90;;;;;;5090929;28;20027;-32
2023/01/21 03:29:41;;;;;;;7.05;5.80;;;-3.90;99.90;;;;;;5095746;28;20035;-31
2023/01/21 03:32:11;;;;;;;10.13;5.40;;;-3.80;99.90;;;;;;5090750;28;20035;-31
2023/01/21 03:34:41;;;;;;;12.45;6.13;;;-3.70;99.90;;;;;;5092637;28;20024;-31
2023/01/21 03:37:16;;;;;;;8.95;6.57;;;-3.70;99.90;;;;;;5091426;28;20073;-32
2023/01/21 03:40:02;;;;;;;5.65;5.15;;;-3.70;99.90;;;;;;5066365;28;20055;-33
2023/01/21 03:42:28;;;;;;;10.93;6.43;;;-3.70;99.90;;;;;;5093247;28;20036;-31
2023/01/21 03:44:54;;;;;;;12.02;6.60;;;-3.70;99.90;;;;;;5089146;28;20036;-31
2023/01/21 03:47:33;;;;;;;5.53;4.38;;;-3.60;99.90;;;;;;5068538;28;20142;-31
2023/01/21 03:50:06;;;;;;;9.65;6.75;;;-3.70;99.90;;;;;;5087772;28;20106;-31
2023/01/21 03:52:32;;;;;;;9.57;6.72;;;-3.70;99.90;;;;;;5092775;28;20032;-31
2023/01/21 03:54:58;;;;;;;8.05;6.10;;;-3.60;99.90;;;;;;5094263;28;20111;-31
2023/01/21 03:57:24;;;;;;;7.68;5.65;;;-3.60;99.90;;;;;;5089867;28;20099;-32
2023/01/21 03:59:49;;;;;;;8.25;6.50;;;-3.70;99.90;;;;;;5088832;28;20024;-35
2023/01/21 04:02:18;;;;;;;6.95;6.38;;;-3.70;99.90;;;;;;5086724;28;20032;-31
2023/01/21 04:04:45;;;;;;;11.48;6.18;;;-3.80;99.90;;;;;;5091232;28;20085;-31
2023/01/21 04:07:11;;;;;;;8.18;5.68;;;-3.90;99.90;;;;;;5086582;28;20028;-33
2023/01/21 04:09:37;;;;;;;10.63;5.90;;;-3.80;99.90;;;;;;5091926;28;20014;-31
2023/01/21 04:12:02;;;;;;;9.88;6.68;;;-3.80;99.90;;;;;;5084691;28;20058;-35
2023/01/21 04:14:28;;;;;;;10.65;6.63;;;-3.70;99.90;;;;;;5093182;28;20134;-31
2023/01/21 04:16:54;;;;;;;8.15;6.57;;;-3.70;99.90;;;;;;5096427;28;20095;-36
2023/01/21 04:19:20;;;;;;;9.13;6.70;;;-3.70;99.90;;;;;;5090414;28;20525;-34
2023/01/21 04:21:46;;;;;;;6.90;5.43;;;-3.70;99.90;;;;;;5087886;28;20020;-31
2023/01/21 04:24:11;;;;;;;7.75;6.10;;;-3.70;99.90;;;;;;5092459;28;20081;-32
2023/01/21 04:26:37;;;;;;;10.07;6.57;;;-3.70;99.90;;;;;;5098378;28;20560;-31
2023/01/21 04:29:03;;;;;;;10.60;6.65;;;-3.60;99.90;;;;;;5090106;28;20020;-31
2023/01/21 04:31:29;;;;;;;9.93;6.97;;;-3.80;99.90;;;;;;5086488;28;20028;-31
2023/01/21 04:33:54;;;;;;;7.85;7.07;;;-3.70;99.90;;;;;;5087962;28;20035;-34
2023/01/21 04:36:20;;;;;;;9.18;6.28;;;-3.80;99.90;;;;;;5075428;28;20051;-31
2023/01/21 04:38:46;;;;;;;11.43;7.35;;;-3.90;99.90;;;;;;5074585;28;21771;-34
2023/01/21 04:41:11;;;;;;;9.27;6.90;;;-3.80;99.90;;;;;;5071596;28;20132;-34
2023/01/21 04:43:37;;;;;;;9.70;5.88;;;-3.70;99.90;;;;;;5073272;28;20400;-32
2023/01/21 04:46:02;;;;;;;7.90;5.72;;;-3.70;99.90;;;;;;5073571;28;20432;-35
2023/01/21 04:48:28;;;;;;;14.48;7.35;;;-3.70;99.90;;;;;;5074449;28;20111;-37
2023/01/21 04:50:54;;;;;;;11.63;6.85;;;-3.60;99.90;;;;;;5057966;28;20485;-33
2023/01/21 04:53:19;;;;;;;11.48;5.97;;;-3.50;99.90;;;;;;5057816;28;20404;-34
2023/01/21 04:55:45;;;;;;;10.57;8.30;;;-3.50;99.90;;;;;;5056618;28;20032;-34
2023/01/21 04:58:11;;;;;;;8.75;5.80;;;-3.40;99.90;;;;;;5074422;28;20028;-37
2023/01/21 05:00:36;;;;;;;8.75;6.05;;;-3.40;99.90;;;;;;5070678;28;20096;-34
2023/01/21 05:03:02;;;;;;;9.73;6.15;;;-3.40;99.90;;;;;;5073015;28;20027;-34
2023/01/21 05:05:28;;;;;;;12.18;7.57;;;-3.30;99.90;;;;;;5072985;28;20033;-32
2023/01/21 05:07:54;;;;;;;6.22;4.88;;;-3.40;99.90;;;;;;5071299;28;20130;-32
2023/01/21 05:10:20;;;;;;;12.88;7.75;;;-3.30;99.90;;;;;;5073395;28;20638;-34
2023/01/21 05:12:47;;;;;;;11.63;7.50;;;-3.30;99.90;;;;;;5069987;28;20035;-34
2023/01/21 05:15:12;;;;;;;8.82;6.07;;;-3.20;99.90;;;;;;5058907;28;20034;-34
2023/01/21 05:17:38;;;;;;;11.93;6.25;;;-3.20;99.90;;;;;;5080683;28;20024;-32
2023/01/21 05:20:04;;;;;;;12.82;6.93;;;-3.10;99.90;;;;;;5087188;28;20082;-35
2023/01/21 05:22:30;;;;;;;11.73;7.88;;;-3.10;99.90;;;;;;5086071;28;20389;-33
2023/01/21 05:24:56;;;;;;;9.60;7.50;;;-3.00;99.90;;;;;;5089750;28;20028;-32
2023/01/21 05:27:21;;;;;;;8.35;6.30;;;-3.00;99.90;;;;;;5083391;28;20166;-35
2023/01/21 05:29:47;;;;;;;9.43;7.30;;;-3.00;99.90;;;;;;5096047;28;20776;-34
2023/01/21 05:32:13;;;;;;;6.07;5.47;;;-3.00;99.90;;;;;;5089820;28;20547;-34
2023/01/21 05:34:38;;;;;;;9.02;8.15;;;-3.10;99.90;;;;;;5084290;28;20032;-32
2023/01/21 05:37:04;;;;;;;12.02;7.80;;;-3.00;99.90;;;;;;5091475;28;20020;-33
2023/01/21 05:39:29;;;;;;;15.25;6.60;;;-3.00;99.90;;;;;;5085637;28;20032;-32
2023/01/21 05:41:55;;;;;;;11.43;6.63;;;-3.00;99.90;;;;;;5091556;28;20036;-33
2023/01/21 05:44:20;;;;;;;13.50;7.50;;;-2.90;99.90;;;;;;5090079;28;20028;-32
2023/01/21 05:46:46;;;;;;;18.77;9.07;;;-2.80;99.90;;;;;;5086301;28;20513;-32
2023/01/21 05:49:12;;;;;;;11.02;7.50;;;-2.80;99.90;;;;;;5085347;28;20042;-32
2023/01/21 05:51:37;;;;;;;20.83;9.35;;;-2.80;99.90;;;;;;5078010;28;20110;-33
2023/01/21 05:54:03;;;;;;;22.45;9.55;;;-2.80;99.90;;;;;;5081750;28;20131;-32
2023/01/21 05:56:28;;;;;;;19.95;10.95;;;-2.90;99.90;;;;;;5091905;28;20035;-32
2023/01/21 05:58:54;;;;;;;26.00;12.00;;;-2.90;99.90;;;;;;5089292;28;20107;-32
2023/01/21 06:01:19;;;;;;;22.38;10.70;;;-2.90;99.90;;;;;;5092176;28;20404;-32
2023/01/21 06:03:45;;;;;;;15.18;9.18;;;-2.90;99.90;;;;;;5082153;28;20481;-31
2023/01/21 06:06:10;;;;;;;23.30;9.90;;;-2.90;99.90;;;;;;5087973;28;20455;-31
2023/01/21 06:08:36;;;;;;;19.20;11.65;;;-2.80;99.90;;;;;;5090290;28;20506;-33
2023/01/21 06:11:02;;;;;;;21.13;11.32;;;-2.90;99.90;;;;;;5092322;28;20028;-32
2023/01/21 06:13:27;;;;;;;13.25;8.75;;;-2.90;99.90;;;;;;5083585;28;20086;-33
2023/01/21 06:15:55;;;;;;;18.08;8.27;;;-2.80;99.90;;;;;;5093194;28;20020;-32
2023/01/21 06:18:21;;;;;;;16.60;8.77;;;-2.90;99.90;;;;;;5089496;28;20032;-32
2023/01/21 06:20:46;;;;;;;19.98;9.23;;;-2.80;99.90;;;;;;5074493;28;20024;-34
2023/01/21 06:23:12;;;;;;;17.17;9.23;;;-2.80;99.90;;;;;;5085769;28;20529;-32
2023/01/21 06:25:38;;;;;;;15.77;8.48;;;-2.80;99.90;;;;;;5092525;28;20333;-34
2023/01/21 06:28:03;;;;;;;18.52;9.63;;;-2.80;99.90;;;;;;5093555;28;20161;-32
2023/01/21 06:30:29;;;;;;;16.33;9.73;;;-2.80;99.90;;;;;;5083162;28;20361;-32
2023/01/21 06:32:54;;;;;;;14.40;8.80;;;-2.80;99.90;;;;;;5095564;28;20389;-32
2023/01/21 06:35:20;;;;;;;14.65;9.00;;;-2.80;99.90;;;;;;5092296;28;20016;-32
2023/01/21 06:37:46;;;;;;;16.80;9.68;;;-2.80;99.90;;;;;;5081229;28;20024;-35
2023/01/21 06:40:12;;;;;;;23.40;11.65;;;-2.80;99.90;;;;;;5075731;28;20027;-37
2023/01/21 06:42:38;;;;;;;16.40;8.45;;;-2.80;99.90;;;;;;5074703;28;20408;-35
2023/01/21 06:45:04;;;;;;;22.10;9.45;;;-2.80;99.90;;;;;;5074202;28;20035;-32
2023/01/21 06:47:30;;;;;;;24.00;10.63;;;-2.70;99.90;;;;;;5075580;28;20060;-38
2023/01/21 06:49:56;;;;;;;19.85;9.50;;;-2.70;99.90;;;;;;5075093;28;20469;-32
2023/01/21 06:52:22;;;;;;;30.55;11.70;;;-2.70;99.90;;;;;;5075641;28;20031;-33
2023/01/21 06:54:47;;;;;;;23.67;11.57;;;-2.70;99.90;;;;;;5075813;28;20354;-32
2023/01/21 06:57:13;;;;;;;22.25;10.60;;;-2.70;99.90;;;;;;5076936;28;20048;-35
2023/01/21 06:59:39;;;;;;;20.55;8.13;;;-2.60;99.90;;;;;;5078644;28;20493;-36
2023/01/21 07:02:06;;;;;;;23.20;10.75;;;-2.60;99.90;;;;;;5076600;28;20063;-34
2023/01/21 07:04:31;;;;;;;21.88;9.88;;;-2.60;99.90;;;;;;5076799;28;20322;-31
2023/01/21 07:06:57;;;;;;;18.17;10.02;;;-2.60;99.90;;;;;;5075012;28;20401;-32
2023/01/21 07:09:23;;;;;;;17.38;9.18;;;-2.60;99.90;;;;;;5074768;28;20028;-32
2023/01/21 07:11:49;;;;;;;17.85;9.23;;;-2.60;99.90;;;;;;5082832;28;20482;-32
2023/01/21 07:14:15;;;;;;;23.67;11.05;;;-2.60;99.90;;;;;;5085610;28;20059;-34
2023/01/21 07:16:41;;;;;;;16.02;9.30;;;-2.60;99.90;;;;;;5082025;28;20413;-33
2023/01/21 07:19:06;;;;;;;25.30;11.45;;;-2.60;99.90;;;;;;5089280;28;20134;-32
2023/01/21 07:21:32;;;;;;;24.02;11.77;;;-2.60;99.90;;;;;;5088901;28;20061;-33
2023/01/21 07:23:59;;;;;;;20.67;10.52;;;-2.60;99.90;;;;;;5078173;28;20081;-33
2023/01/21 07:26:24;;;;;;;25.70;11.02;;;-2.60;99.90;;;;;;5078914;28;20032;-34
2023/01/21 07:28:50;;;;;;;19.65;10.70;;;-2.50;99.90;;;;;;5058204;28;20032;-34
2023/01/21 07:31:16;;;;;;;22.23;11.15;;;-2.50;99.90;;;;;;5073629;28;20514;-33
2023/01/21 07:33:41;;;;;;;22.92;11.35;;;-2.40;99.90;;;;;;5076909;28;20112;-32
2023/01/21 07:36:07;;;;;;;24.02;11.18;;;-2.40;99.90;;;;;;5074870;28;20078;-32
2023/01/21 07:38:33;;;;;;;22.85;10.32;;;-2.40;99.90;;;;;;5087825;28;20397;-32
2023/01/21 07:40:58;;;;;;;23.98;9.88;;;-2.40;99.90;;;;;;5090331;28;20023;-31
2023/01/21 07:43:26;;;;;;;17.08;8.70;;;-2.30;99.90;;;;;;5090952;28;20442;-35
2023/01/21 07:45:51;;;;;;;22.77;12.18;;;-2.30;99.90;;;;;;5088810;28;20095;-32
2023/01/21 07:48:17;;;;;;;17.65;9.48;;;-2.30;99.90;;;;;;5092452;28;20464;-31
2023/01/21 07:50:42;;;;;;;15.98;9.05;;;-2.30;99.90;;;;;;5092526;28;20054;-34
2023/01/21 07:53:10;;;;;;;21.50;9.68;;;-2.30;99.90;;;;;;5094903;28;20046;-34
2023/01/21 07:55:36;;;;;;;19.15;9.20;;;-2.30;99.90;;;;;;5088784;28;20012;-32
2023/01/21 07:58:01;;;;;;;18.80;10.27;;;-2.20;99.90;;;;;;5089659;28;20039;-35
2023/01/21 08:00:28;;;;;;;14.80;8.57;;;-2.30;99.90;;;;;;5082211;28;20123;-36
2023/01/21 08:02:54;;;;;;;10.70;7.18;;;-2.20;99.90;;;;;;5088029;28;20111;-32
2023/01/21 08:05:20;;;;;;;18.85;9.52;;;-2.10;99.90;;;;;;5083451;28;20027;-33
2023/01/21 08:07:46;;;;;;;16.00;8.98;;;-2.10;99.90;;;;;;5089180;28;20055;-32
2023/01/21 08:10:11;;;;;;;18.38;9.75;;;-2.10;99.90;;;;;;5094190;28;20400;-35
2023/01/21 08:12:40;;;;;;;19.52;9.35;;;-2.00;99.90;;;;;;5088681;28;20051;-31
2023/01/21 08:15:06;;;;;;;;;;;-2.00;99.90;;;;;;5085156;28;20060;-32
2023/01/21 08:17:32;;;;;;;14.73;7.80;;;-2.00;99.90;;;;;;5092596;28;19955;-33
2023/01/21 08:19:57;;;;;;;19.00;9.70;;;-2.00;99.90;;;;;;5085511;28;20093;-34
2023/01/21 08:22:24;;;;;;;18.73;9.07;;;-2.00;99.90;;;;;;5087990;28;20020;-32
2023/01/21 08:24:50;;;;;;;20.50;9.00;;;-2.00;99.90;;;;;;5091674;28;20027;-34
2023/01/21 08:27:16;;;;;;;26.02;11.75;;;-1.90;99.90;;;;;;5090988;28;20107;-31
2023/01/21 08:29:42;;;;;;;18.60;9.55;;;-2.00;99.90;;;;;;5087506;28;20911;-33
2023/01/21 08:32:07;;;;;;;20.65;9.65;;;-2.00;99.90;;;;;;5065953;28;20151;-34
2023/01/21 08:34:34;;;;;;;22.55;10.75;;;-1.90;99.90;;;;;;5084900;28;20517;-32
2023/01/21 08:37:00;;;;;;;22.23;9.95;;;-1.90;99.90;;;;;;5090960;28;20058;-32
2023/01/21 08:39:25;;;;;;;18.65;9.32;;;-1.90;99.90;;;;;;5093209;28;20492;-33
2023/01/21 08:41:51;;;;;;;21.08;11.02;;;-1.90;99.90;;;;;;5088357;28;20123;-32
2023/01/21 08:44:16;;;;;;;22.80;9.88;;;-1.90;99.90;;;;;;5091330;28;20504;-31
2023/01/21 08:46:42;;;;;;;17.45;8.55;;;-1.90;99.90;;;;;;5087308;28;20150;-34
2023/01/21 08:49:08;;;;;;;21.88;9.90;;;-1.90;99.90;;;;;;5088059;28;20493;-37
2023/01/21 08:51:33;;;;;;;16.25;8.15;;;-1.80;99.90;;;;;;5091379;28;20032;-34
2023/01/21 08:53:59;;;;;;;24.35;10.02;;;-1.80;99.90;;;;;;5085563;28;20036;-30
2023/01/21 08:56:24;;;;;;;21.48;9.88;;;-1.80;99.90;;;;;;5081291;28;20031;-32
2023/01/21 08:58:56;;;;;;;18.90;10.10;;;-1.80;99.90;;;;;;5090394;28;20036;-31
2023/01/21 09:01:24;;;;;;;19.63;9.82;;;-1.70;99.90;;;;;;5096298;28;20032;-31
2023/01/21 09:03:56;;;;;;;18.40;9.50;;;-1.70;99.90;;;;;;5089658;28;20032;-31
2023/01/21 09:06:28;;;;;;;18.73;9.68;;;-1.70;99.90;;;;;;5062755;28;20194;-33
2023/01/21 09:08:54;;;;;;;19.83;9.93;;;-1.70;99.90;;;;;;5043276;28;20721;-34
2023/01/21 09:11:20;;;;;;;17.70;9.40;;;-1.60;99.90;;;;;;5074419;28;20036;-31
2023/01/21 09:13:46;;;;;;;23.25;10.63;;;-1.60;99.90;;;;;;5090863;28;20044;-31
2023/01/21 09:16:17;;;;;;;16.13;9.35;;;-1.60;99.90;;;;;;5087613;28;20530;-31
2023/01/21 09:18:43;;;;;;;13.70;7.97;;;-1.60;99.90;;;;;;5087517;28;20474;-32
2023/01/21 09:21:10;;;;;;;21.58;9.07;;;-1.60;99.90;;;;;;5094155;28;20481;-30
2023/01/21 09:23:37;;;;;;;17.65;9.30;;;-1.50;99.90;;;;;;5093607;28;20028;-31
2023/01/21 09:26:13;;;;;;;23.38;11.13;;;-1.50;99.90;;;;;;5082197;28;20020;-31
2023/01/21 09:28:43;;;;;;;22.70;11.00;;;-1.50;99.90;;;;;;5071094;28;20028;-31
2023/01/21 09:31:11;;;;;;;23.05;10.43;;;-1.50;99.90;;;;;;5095460;28;20032;-31
2023/01/21 09:33:39;;;;;;;24.60;11.18;;;-1.60;99.90;;;;;;5088210;28;20020;-31
2023/01/21 09:36:07;;;;;;;21.33;9.70;;;-1.50;99.90;;;;;;5080237;28;20393;-33
2023/01/21 09:38:33;;;;;;;23.23;12.50;;;-1.50;99.90;;;;;;5085464;28;20617;-31
2023/01/21 09:41:12;;;;;;;22.30;11.05;;;-1.50;99.90;;;;;;5090711;28;20068;-31
2023/01/21 09:43:45;;;;;;;;;;;-1.50;99.90;;;;;;5095782;28;20570;-31
2023/01/21 09:46:33;;;;;;;26.92;12.55;;;-1.50;99.90;;;;;;5089304;28;19908;-31
2023/01/21 09:49:02;;;;;;;25.63;11.65;;;-1.50;99.90;;;;;;5094575;28;20035;-31
2023/01/21 09:51:41;;;;;;;24.20;11.55;;;-1.60;99.90;;;;;;5092070;28;20043;-31
2023/01/21 09:54:24;;;;;;;20.40;10.07;;;-1.50;99.90;;;;;;5088287;28;20028;-32
2023/01/21 09:57:41;;;;;;;25.00;11.10;;;-1.50;99.90;;;;;;5085397;28;20024;-31
2023/01/21 10:00:13;;;;;;;25.30;11.38;;;-1.40;99.90;;;;;;5032910;28;20031;-32
2023/01/21 10:02:47;;;;;;;22.88;10.38;;;-1.40;99.90;;;;;;5092610;28;20024;-31
2023/01/21 10:05:13;;;;;;;25.10;12.52;;;-1.30;99.90;;;;;;5097973;28;20074;-31
2023/01/21 10:07:58;;;;;;;31.13;11.60;;;-1.30;99.90;;;;;;5080788;28;20572;-32
2023/01/21 10:10:39;;;;;;;25.73;12.05;;;-1.30;99.90;;;;;;5089234;28;20469;-33
2023/01/21 10:13:39;;;;;;;23.52;11.05;;;-1.30;99.90;;;;;;5092637;28;20024;-33
2023/01/21 10:16:25;;;;;;;16.77;9.60;;;-1.30;99.90;;;;;;5089323;28;20051;-31
2023/01/21 10:18:52;;;;;;;25.23;11.15;;;-1.20;99.90;;;;;;5087635;28;20082;-31
2023/01/21 10:21:49;;;;;;;19.15;10.27;;;-1.20;99.90;;;;;;5087621;28;20571;-32
2023/01/21 10:24:23;;;;;;;20.13;10.43;;;-1.20;99.90;;;;;;5067702;28;20503;-31
2023/01/21 10:26:51;;;;;;;18.67;10.05;;;-1.20;99.90;;;;;;5088508;28;20525;-35
2023/01/21 10:29:20;;;;;;;27.05;12.27;;;-1.30;99.90;;;;;;5088017;28;20366;-31
2023/01/21 10:32:00;;;;;;;25.30;10.75;;;-1.30;99.90;;;;;;5093338;28;20137;-32
2023/01/21 10:34:30;;;;;;;26.30;11.40;;;-1.20;99.90;;;;;;5091855;28;20066;-32
2023/01/21 10:37:20;;;;;;;27.20;11.13;;;-1.20;99.90;;;;;;5083480;28;20020;-31
2023/01/21 10:40:41;;;;;;;22.98;11.52;;;-1.20;99.90;;;;;;5089634;28;20052;-32
2023/01/21 10:43:23;;;;;;;23.55;11.45;;;-1.20;99.90;;;;;;5090362;28;20031;-31
2023/01/21 10:45:48;;;;;;;24.27;11.30;;;-1.20;99.90;;;;;;5081289;28;20032;-32
2023/01/21 10:48:47;;;;;;;18.27;8.60;;;-1.20;99.90;;;;;;5066122;28;20512;-31
2023/01/21 10:51:20;;;;;;;27.08;11.32;;;-1.20;99.90;;;;;;5092053;28;20522;-32
2023/01/21 10:54:05;;;;;;;24.58;11.32;;;-1.20;99.90;;;;;;5070116;28;20024;-30
2023/01/21 10:56:54;;;;;;;18.80;9.35;;;-1.20;99.90;;;;;;5068145;28;20058;-31
2023/01/21 10:59:27;;;;;;;19.90;9.82;;;-1.10;99.90;;;;;;5088018;28;20028;-34
2023/01/21 11:02:07;;;;;;;19.95;9.65;;;-1.20;99.90;;;;;;5099591;28;20059;-31
2023/01/21 11:04:35;;;;;;;23.15;11.48;;;-1.10;99.90;;;;;;5090951;28;20481;-31
2023/01/21 11:07:06;;;;;;;23.75;11.05;;;-1.10;99.90;;;;;;5084458;28;20111;-32
2023/01/21 11:09:36;;;;;;;17.65;7.63;;;-1.10;99.90;;;;;;5091557;28;20465;-31
2023/01/21 11:12:02;;;;;;;22.83;10.88;;;-1.10;99.90;;;;;;5090449;28;20107;-31
2023/01/21 11:14:28;;;;;;;22.35;9.85;;;-1.10;99.90;;;;;;5092309;28;20177;-36
2023/01/21 11:16:54;;;;;;;20.80;10.15;;;-1.10;99.90;;;;;;5083111;28;20054;-32
2023/01/21 11:19:29;;;;;;;23.40;10.27;;;-1.10;99.90;;;;;;5086383;28;20032;-32
2023/01/21 11:22:11;;;;;;;21.00;9.20;;;-1.10;99.90;;;;;;5088397;28;20054;-31
2023/01/21 11:24:48;;;;;;;18.80;9.23;;;-1.00;99.90;;;;;;5093626;28;20249;-32
2023/01/21 11:27:19;;;;;;;16.75;8.52;;;-1.00;99.90;;;;;;5087142;28;20716;-32
2023/01/21 11:29:47;;;;;;;25.02;10.20;;;-1.00;99.90;;;;;;5092225;28;20030;-31
2023/01/21 11:32:24;;;;;;;18.25;9.88;;;-1.00;99.90;;;;;;5086166;28;20037;-34
2023/01/21 11:35:19;;;;;;;20.10;10.15;;;-1.00;99.90;;;;;;5092787;28;20032;-32
2023/01/21 11:37:45;;;;;;;25.08;11.15;;;-0.90;99.90;;;;;;5085348;28;20075;-33
2023/01/21 11:40:18;;;;;;;19.52;9.50;;;-0.90;99.90;;;;;;5085766;28;20028;-31
2023/01/21 11:42:49;;;;;;;20.35;9.80;;;-0.90;99.90;;;;;;5083451;28;20107;-33
2023/01/21 11:45:30;;;;;;;19.27;7.68;;;-1.00;99.90;;;;;;5096078;28;20031;-31
2023/01/21 11:47:57;;;;;;;18.35;9.20;;;-1.00;99.90;;;;;;5087641;28;20048;-31
2023/01/21 11:50:30;;;;;;;19.42;9.55;;;-0.90;99.90;;;;;;5093272;28;20033;-30
2023/01/21 11:53:11;;;;;;;16.40;8.93;;;-0.90;99.90;;;;;;5096965;28;20107;-32
2023/01/21 11:55:48;;;;;;;19.50;9.68;;;-1.00;99.90;;;;;;5091017;28;20023;-31
2023/01/21 11:58:28;;;;;;;17.17;8.43;;;-0.90;99.90;;;;;;5090790;28;20105;-31
2023/01/21 12:00:56;;;;;;;21.45;10.00;;;-0.90;99.90;;;;;;5088981;28;20093;-33
2023/01/21 12:03:54;;;;;;;20.83;9.55;;;-0.90;99.90;;;;;;5093073;28;20405;-35
2023/01/21 12:06:24;;;;;;;19.42;10.07;;;-0.90;99.90;;;;;;5084968;28;20062;-31
2023/01/21 12:08:53;;;;;;;20.10;9.07;;;-0.90;99.90;;;;;;5090084;28;20150;-32
2023/01/21 12:11:22;;;;;;;23.08;10.77;;;-1.00;99.90;;;;;;5087516;28;20078;-32
2023/01/21 12:14:10;;;;;;;25.00;10.60;;;-1.00;99.90;;;;;;5089246;28;20048;-32
2023/01/21 12:16:44;;;;;;;19.20;9.17;;;-0.90;99.90;;;;;;5076870;28;20059;-32
2023/01/21 12:19:36;;;;;;;17.73;9.30;;;-0.90;99.90;;;;;;5085333;28;20348;-31
2023/01/21 12:22:25;;;;;;;23.63;11.85;;;-0.90;99.90;;;;;;5088651;28;20028;-31
2023/01/21 12:24:56;;;;;;;19.70;9.48;;;-0.90;99.90;;;;;;5094147;28;20024;-31
2023/01/21 12:27:34;;;;;;;21.30;9.65;;;-0.90;99.90;;;;;;5084939;28;20485;-31
2023/01/21 12:30:18;;;;;;;13.45;7.47;;;-0.90;99.90;;;;;;5088978;28;20412;-33
2023/01/21 12:33:02;;;;;;;18.40;8.75;;;-0.90;99.90;;;;;;5091705;28;20558;-32
2023/01/21 12:35:50;;;;;;;19.17;9.90;;;-0.90;99.90;;;;;;5082164;28;20123;-31
2023/01/21 12:38:20;;;;;;;20.67;11.40;;;-0.90;99.90;;;;;;5090678;28;20065;-31
2023/01/21 12:41:00;;;;;;;15.05;8.55;;;-0.90;99.90;;;;;;5089624;28;20059;-31
2023/01/21 12:43:39;;;;;;;14.85;8.98;;;-1.00;99.90;;;;;;5075237;28;20020;-31
2023/01/21 12:46:26;;;;;;;18.92;10.00;;;-1.00;99.90;;;;;;5087080;28;20511;-31
2023/01/21 12:49:15;;;;;;;18.05;9.55;;;-1.00;99.90;;;;;;5085690;28;20086;-31
2023/01/21 12:51:44;;;;;;;15.10;8.38;;;-1.00;99.90;;;;;;5089094;28;20450;-31
2023/01/21 12:54:38;;;;;;;16.60;7.95;;;-1.00;99.90;;;;;;5088898;28;20051;-32
2023/01/21 12:57:15;;;;;;;15.52;7.90;;;-1.00;99.90;;;;;;5090276;28;20492;-32
2023/01/21 13:00:12;;;;;;;13.02;8.00;;;-1.00;99.90;;;;;;5084865;28;20073;-33